Time;durP1;ratioP1;P1;durP2;ratioP2;P2;SDS_P1;SDS_P2;PMS_P1;PMS_P2;Temp;Humidity;BMP_temperature;BMP_pressure;BME280_temperature;BME280_humidity;BME280_pressure;Samples;Min_cycle;Max_cycle;Signal;HPM_P1;HPM_P2
2023/06/21 00:01:43;;;;;;;5.55;4.78;;;;;;;19.01;100.00;101200.44;5089629;28;20491;-37
2023/06/21 00:04:08;;;;;;;5.72;5.07;;;;;;;19.15;100.00;101196.03;5089300;28;20042;-37
2023/06/21 00:06:34;;;;;;;6.22;5.57;;;;;;;19.02;100.00;101199.34;5089332;28;20048;-37
2023/06/21 00:09:03;;;;;;;5.82;4.90;;;;;;;19.00;100.00;101204.28;5089200;28;20522;-37
2023/06/21 00:11:29;;;;;;;6.30;5.70;;;;;;;18.91;100.00;101209.53;5079474;28;20036;-37
2023/06/21 00:13:55;;;;;;;5.28;4.80;;;;;;;18.85;100.00;101193.38;5075649;28;20062;-37
2023/06/21 00:16:21;;;;;;;5.40;4.90;;;;;;;18.87;100.00;101207.59;5075802;28;20115;-37
2023/06/21 00:18:47;;;;;;;6.10;5.60;;;;;;;18.96;100.00;101214.16;5075218;28;20036;-37
2023/06/21 00:21:13;;;;;;;6.13;5.13;;;;;;;19.04;100.00;101208.94;5075980;28;20403;-37
2023/06/21 00:23:39;;;;;;;5.93;5.43;;;;;;;19.03;100.00;101221.00;5075415;28;20033;-37
2023/06/21 00:26:04;;;;;;;6.25;5.65;;;;;;;18.91;100.00;101214.19;5075500;28;20036;-37
2023/06/21 00:28:30;;;;;;;5.35;4.85;;;;;;;18.97;100.00;101235.81;5075337;28;20035;-37
2023/06/21 00:30:55;;;;;;;6.00;5.40;;;;;;;18.98;100.00;101223.75;5075644;28;20035;-37
2023/06/21 00:33:20;;;;;;;6.45;5.68;;;;;;;18.93;100.00;101228.41;5075661;28;20468;-37
2023/06/21 00:35:46;;;;;;;8.95;5.70;;;;;;;18.87;100.00;101224.06;5075280;28;20029;-37
2023/06/21 00:38:12;;;;;;;6.85;5.25;;;;;;;18.99;100.00;101227.31;5075174;28;20051;-37
2023/06/21 00:40:38;;;;;;;8.25;5.60;;;;;;;18.90;100.00;101224.31;5075668;28;20087;-37
2023/06/21 00:43:04;;;;;;;6.28;5.78;;;;;;;18.81;100.00;101219.69;5075047;28;20060;-37
2023/06/21 00:45:33;;;;;;;5.93;5.43;;;;;;;18.95;100.00;101229.78;5074843;28;20027;-37
2023/06/21 00:47:58;;;;;;;6.47;5.88;;;;;;;18.98;100.00;101234.72;5075015;28;20028;-37
2023/06/21 00:50:25;;;;;;;7.10;6.40;;;;;;;18.87;100.00;101243.22;5075859;28;20039;-37
2023/06/21 00:52:50;;;;;;;7.88;6.88;;;;;;;18.80;100.00;101235.31;5075161;28;20028;-37
2023/06/21 00:55:19;;;;;;;7.28;6.57;;;;;;;18.72;100.00;101233.94;5074674;28;20040;-37
2023/06/21 00:57:44;;;;;;;6.68;6.10;;;;;;;18.71;100.00;101231.47;5074569;28;20035;-37
2023/06/21 01:00:17;;;;;;;8.50;6.90;;;;;;;18.80;100.00;101231.75;5074931;28;20048;-37
2023/06/21 01:02:43;;;;;;;6.90;6.30;;;;;;;18.83;100.00;101239.41;5075320;28;20449;-37
2023/06/21 01:05:09;;;;;;;6.32;5.72;;;;;;;18.89;100.00;101238.31;5074924;28;20029;-37
2023/06/21 01:07:45;;;;;;;7.78;6.75;;;;;;;18.78;100.00;101249.25;5074704;28;20491;-37
2023/06/21 01:10:21;;;;;;;8.07;7.32;;;;;;;18.79;100.00;101244.63;5075146;28;20114;-37
2023/06/21 01:13:25;;;;;;;7.38;6.68;;;;;;;18.80;100.00;101245.44;5074353;28;20032;-37
2023/06/21 01:16:13;;;;;;;7.22;6.60;;;;;;;18.79;100.00;101250.09;5073772;28;20492;-37
2023/06/21 01:18:45;;;;;;;8.23;7.43;;;;;;;18.65;100.00;101257.22;5074309;28;20108;-37
2023/06/21 01:21:18;;;;;;;7.80;7.00;;;;;;;18.69;100.00;101252.84;5074403;28;20060;-37
2023/06/21 01:23:59;;;;;;;7.90;7.15;;;;;;;18.63;100.00;101246.50;5073015;28;20107;-37
2023/06/21 01:26:52;;;;;;;7.53;6.82;;;;;;;18.73;100.00;101246.53;5074314;28;20046;-37
2023/06/21 01:29:21;;;;;;;7.25;6.55;;;;;;;18.75;100.00;101238.88;5074911;28;20024;-37
2023/06/21 01:31:51;;;;;;;8.20;7.03;;;;;;;18.73;100.00;101245.72;5074368;28;20408;-37
2023/06/21 01:34:17;;;;;;;8.27;7.10;;;;;;;18.63;100.00;101245.69;5073799;28;20033;-37
2023/06/21 01:36:43;;;;;;;7.40;6.60;;;;;;;18.72;100.00;101255.84;5073771;28;20039;-37
2023/06/21 01:39:09;;;;;;;8.50;7.70;;;;;;;18.66;100.00;101256.09;5074359;28;20033;-37
2023/06/21 01:41:35;;;;;;;6.97;6.20;;;;;;;18.73;100.00;101248.44;5074692;28;20028;-37
2023/06/21 01:44:02;;;;;;;6.85;6.22;;;;;;;18.68;100.00;101252.00;5073644;28;20142;-37
2023/06/21 01:46:28;;;;;;;6.70;5.85;;;;;;;18.63;100.00;101246.50;5074064;28;20036;-37
2023/06/21 01:48:55;;;;;;;7.78;7.13;;;;;;;18.55;100.00;101252.56;5073736;28;20028;-37
2023/06/21 01:51:21;;;;;;;7.55;6.90;;;;;;;18.50;100.00;101263.50;5073960;28;20028;-37
2023/06/21 01:53:48;;;;;;;7.72;6.93;;;;;;;18.48;100.00;101261.03;5073636;28;20060;-37
2023/06/21 01:56:16;;;;;;;8.18;7.38;;;;;;;18.43;100.00;101257.47;5073622;28;20064;-37
2023/06/21 01:58:42;;;;;;;8.07;7.28;;;;;;;18.45;100.00;101261.59;5073670;28;20499;-37
2023/06/21 02:01:09;;;;;;;7.60;6.90;;;;;;;18.43;100.00;101260.22;5073520;28;20060;-37
2023/06/21 02:03:39;;;;;;;8.18;7.38;;;;;;;18.46;100.00;101259.69;5073411;28;20063;-37
2023/06/21 02:06:06;;;;;;;7.75;7.05;;;;;;;18.41;100.00;101265.16;5073634;28;20032;-37
2023/06/21 02:08:32;;;;;;;7.72;6.97;;;;;;;18.37;100.00;101269.53;5073303;28;20032;-37
2023/06/21 02:11:00;;;;;;;7.82;7.10;;;;;;;18.50;100.00;101285.41;5073567;28;20329;-37
2023/06/21 02:13:26;;;;;;;7.55;6.85;;;;;;;18.48;100.00;101287.59;5073035;28;20033;-37
2023/06/21 02:15:52;;;;;;;8.05;7.25;;;;;;;18.35;100.00;101274.44;5073753;28;20107;-37
2023/06/21 02:18:21;;;;;;;8.10;7.03;;;;;;;18.36;100.00;101285.13;5072873;28;20433;-37
2023/06/21 02:20:47;;;;;;;8.00;7.22;;;;;;;18.32;100.00;101269.53;5073228;28;20523;-37
2023/06/21 02:23:12;;;;;;;8.35;7.60;;;;;;;18.28;100.00;101278.25;5073131;28;20063;-37
2023/06/21 02:25:37;;;;;;;7.68;6.97;;;;;;;18.35;100.00;101288.13;5073559;28;20107;-37
2023/06/21 02:28:03;;;;;;;10.63;7.70;;;;;;;18.23;100.00;101271.97;5073053;28;20081;-37
2023/06/21 02:30:29;;;;;;;7.45;6.85;;;;;;;18.32;100.00;101294.97;5072974;28;20476;-37
2023/06/21 02:32:54;;;;;;;;;;;;;;;18.44;100.00;101297.44;5073125;28;20028;-37
2023/06/21 02:35:20;;;;;;;8.57;7.78;;;;;;;18.22;100.00;101301.25;5073237;28;19909;-37
2023/06/21 02:37:47;;;;;;;;;;;;;;;18.37;100.00;101299.63;5073948;28;20174;-37
2023/06/21 02:40:13;;;;;;;;;;;;;;;18.38;100.00;101304.00;5074006;28;19912;-37
2023/06/21 02:42:39;;;;;;;7.07;6.38;;;;;;;18.24;100.00;101301.78;5073482;28;19970;-37
2023/06/21 02:45:07;;;;;;;8.50;7.70;;;;;;;18.19;100.00;101309.19;5072895;28;20107;-37
2023/06/21 02:47:33;;;;;;;8.52;7.82;;;;;;;18.15;100.00;101305.34;5073321;28;20253;-37
2023/06/21 02:49:59;;;;;;;8.23;7.53;;;;;;;18.13;100.00;101305.63;5072825;28;20043;-37
2023/06/21 02:52:24;;;;;;;;;;;;;;;18.27;100.00;101314.94;5073491;28;20021;-37
2023/06/21 02:54:52;;;;;;;10.30;7.57;;;;;;;18.23;100.00;101315.75;5072735;28;20003;-37
2023/06/21 02:57:18;;;;;;;7.65;6.95;;;;;;;18.24;100.00;101318.22;5072474;28;20255;-37
2023/06/21 02:59:43;;;;;;;;;;;;;;;18.31;100.00;101322.63;5073081;28;20052;-37
2023/06/21 03:02:09;;;;;;;7.93;7.30;;;;;;;18.15;100.00;101322.56;5072438;28;19919;-37
2023/06/21 03:04:35;;;;;;;8.90;7.88;;;;;;;18.13;100.00;101327.50;5072554;28;20262;-37
2023/06/21 03:07:01;;;;;;;8.90;8.02;;;;;;;18.11;100.00;101339.84;5072610;28;20044;-37
2023/06/21 03:09:27;;;;;;;9.57;8.60;;;;;;;18.08;100.00;101343.09;5072733;28;20040;-37
2023/06/21 03:11:52;;;;;;;9.20;8.40;;;;;;;18.07;100.00;101344.19;5073343;28;20115;-37
2023/06/21 03:14:18;;;;;;;8.65;7.85;;;;;;;18.09;100.00;101350.22;5072502;28;20107;-37
2023/06/21 03:16:44;;;;;;;8.88;7.95;;;;;;;18.03;100.00;101343.91;5072732;28;20029;-37
2023/06/21 03:19:09;;;;;;;9.10;8.38;;;;;;;18.09;100.00;101361.16;5072418;28;20021;-37
2023/06/21 03:21:35;;;;;;;10.05;9.02;;;;;;;17.88;100.00;101350.16;5072464;28;20021;-37
2023/06/21 03:24:02;;;;;;;10.05;8.45;;;;;;;17.99;100.00;101370.97;5072864;28;20067;-37
2023/06/21 03:26:28;;;;;;;9.23;8.43;;;;;;;18.13;100.00;101365.81;5072872;28;20044;-37
2023/06/21 03:28:54;;;;;;;8.98;8.18;;;;;;;18.07;100.00;101372.38;5072061;28;20032;-37
2023/06/21 03:31:20;;;;;;;9.68;8.77;;;;;;;18.05;100.00;101380.03;5072298;28;20037;-37
2023/06/21 03:33:45;;;;;;;9.30;8.45;;;;;;;18.13;100.00;101379.50;5072032;28;20029;-37
2023/06/21 03:36:11;;;;;;;10.13;9.23;;;;;;;18.08;100.00;101375.94;5072284;28;20087;-37
2023/06/21 03:38:36;;;;;;;10.15;9.25;;;;;;;18.07;100.00;101368.81;5072229;28;20021;-37
2023/06/21 03:41:01;;;;;;;10.95;9.85;;;;;;;18.07;100.00;101369.66;5072924;28;20364;-37
2023/06/21 03:43:27;;;;;;;;;;;;;;;18.22;100.00;101372.44;5073029;28;20048;-37
2023/06/21 03:45:52;;;;;;;9.68;8.77;;;;;;;18.17;100.00;101366.94;5074281;28;19908;-37
2023/06/21 03:48:17;;;;;;;10.55;9.55;;;;;;;18.12;100.00;101369.66;5075684;28;20068;-37
2023/06/21 03:50:42;;;;;;;;;;;;;;;18.25;100.00;101371.91;5076413;28;20036;-37
2023/06/21 03:53:08;;;;;;;10.90;9.90;;;;;;;18.21;100.00;101369.97;5075853;28;20355;-37
2023/06/21 03:55:35;;;;;;;;;;;;;;;18.31;100.00;101372.72;5076463;28;20618;-37
2023/06/21 03:58:00;;;;;;;10.70;9.65;;;;;;;18.31;100.00;101372.72;5075791;28;19908;-37
2023/06/21 04:00:26;;;;;;;10.80;9.90;;;;;;;18.24;100.00;101372.97;5076554;28;20054;-37
2023/06/21 04:02:51;;;;;;;11.57;10.57;;;;;;;18.24;100.00;101383.09;5076525;28;20368;-37
2023/06/21 04:05:16;;;;;;;11.45;10.45;;;;;;;18.36;100.00;101382.88;5075887;28;20028;-37
2023/06/21 04:07:42;;;;;;;10.85;9.75;;;;;;;18.38;100.00;101388.91;5075892;28;20055;-37
2023/06/21 04:10:12;;;;;;;10.88;9.93;;;;;;;18.39;100.00;101383.13;5076019;28;20441;-37
2023/06/21 04:12:38;;;;;;;11.13;10.10;;;;;;;18.41;100.00;101396.56;5075689;28;20048;-37
2023/06/21 04:15:05;;;;;;;10.68;9.77;;;;;;;18.37;100.00;101384.50;5075770;28;20021;-37
2023/06/21 04:17:30;;;;;;;11.00;9.93;;;;;;;18.38;100.00;101395.19;5075934;28;20021;-36
2023/06/21 04:19:56;;;;;;;11.63;10.32;;;;;;;18.32;100.00;101379.03;5075372;28;20083;-36
2023/06/21 04:22:24;;;;;;;11.80;10.63;;;;;;;18.35;100.00;101393.00;5075360;28;20432;-37
2023/06/21 04:24:51;;;;;;;11.73;10.63;;;;;;;18.41;100.00;101400.13;5075405;28;20119;-37
2023/06/21 04:27:16;;;;;;;10.43;9.35;;;;;;;18.45;100.00;101403.16;5075299;28;20127;-37
2023/06/21 04:29:41;;;;;;;12.00;10.88;;;;;;;18.47;100.00;101411.91;5074961;28;20103;-37
2023/06/21 04:32:08;;;;;;;11.75;10.65;;;;;;;18.55;100.00;101413.31;5075398;28;20032;-36
2023/06/21 04:34:34;;;;;;;11.85;10.85;;;;;;;18.52;100.00;101414.66;5074885;28;20040;-37
2023/06/21 04:37:05;;;;;;;11.88;10.88;;;;;;;18.50;100.00;101412.22;5075495;28;20107;-37
2023/06/21 04:39:30;;;;;;;12.20;11.15;;;;;;;18.53;100.00;101406.16;5075850;28;20032;-37
2023/06/21 04:41:58;;;;;;;11.63;10.63;;;;;;;18.61;100.00;101410.31;5075226;28;20032;-37
2023/06/21 04:44:23;;;;;;;11.40;9.75;;;;;;;18.72;100.00;101419.41;5074644;28;20492;-37
2023/06/21 04:46:48;;;;;;;11.55;10.50;;;;;;;18.70;100.00;101414.19;5075203;28;20028;-37
2023/06/21 04:49:17;;;;;;;12.30;11.30;;;;;;;18.72;100.00;101420.22;5075439;28;20033;-37
2023/06/21 04:51:43;;;;;;;13.68;12.43;;;;;;;18.75;100.00;101427.09;5075180;28;20025;-37
2023/06/21 04:54:09;;;;;;;13.77;12.38;;;;;;;18.81;100.00;101430.66;5075125;28;20024;-37
2023/06/21 04:56:35;;;;;;;13.75;12.45;;;;;;;18.78;100.00;101419.13;5074704;28;20120;-37
2023/06/21 04:59:01;;;;;;;13.55;12.13;;;;;;;18.84;100.00;101419.97;5074571;28;20056;-37
2023/06/21 05:01:27;;;;;;;13.20;12.00;;;;;;;18.82;100.00;101411.19;5075025;28;20032;-37
2023/06/21 05:03:52;;;;;;;12.98;11.70;;;;;;;19.00;100.00;101424.38;5074684;28;20385;-37
2023/06/21 05:06:20;;;;;;;13.77;12.52;;;;;;;19.06;100.00;101424.38;5075246;28;20116;-37
2023/06/21 05:08:46;;;;;;;14.35;12.93;;;;;;;19.14;100.00;101421.91;5074595;28;20447;-37
2023/06/21 05:11:11;;;;;;;13.05;11.85;;;;;;;19.26;100.00;101424.34;5074840;28;20059;-37
2023/06/21 05:13:37;;;;;;;13.55;12.40;;;;;;;19.24;100.00;101437.53;5075184;28;20079;-37
2023/06/21 05:16:02;;;;;;;14.32;12.85;;;;;;;19.29;100.00;101437.53;5074554;28;20029;-37
2023/06/21 05:18:27;;;;;;;14.20;12.80;;;;;;;19.40;100.00;101439.16;5074568;28;20329;-37
2023/06/21 05:20:53;;;;;;;13.75;12.45;;;;;;;19.41;100.00;101442.72;5073898;28;20108;-37
2023/06/21 05:23:18;;;;;;;12.48;11.40;;;;;;;19.49;100.00;101443.00;5072935;28;20100;-37
2023/06/21 05:25:43;;;;;;;13.60;12.35;;;;;;;19.50;100.00;101454.78;5074479;28;20025;-37
2023/06/21 05:28:09;;;;;;;13.38;12.18;;;;;;;19.50;100.00;101460.28;5074207;28;20028;-37
2023/06/21 05:30:35;;;;;;;12.48;11.38;;;;;;;19.51;100.00;101468.22;5074175;28;20052;-37
2023/06/21 05:33:00;;;;;;;13.65;12.45;;;;;;;19.54;100.00;101467.66;5074220;28;20032;-37
2023/06/21 05:35:26;;;;;;;14.25;13.05;;;;;;;19.63;100.00;101467.16;5073623;28;20163;-37
2023/06/21 05:37:53;;;;;;;13.98;12.57;;;;;;;19.60;100.00;101456.72;5073898;28;20400;-37
2023/06/21 05:40:19;;;;;;;15.25;13.65;;;;;;;19.56;100.00;101461.91;5073964;28;20024;-37
2023/06/21 05:42:44;;;;;;;13.75;12.57;;;;;;;19.60;100.00;101456.72;5073921;28;20040;-37
2023/06/21 05:45:10;;;;;;;14.25;12.95;;;;;;;19.66;100.00;101472.06;5073926;28;20371;-37
2023/06/21 05:47:35;;;;;;;13.07;11.73;;;;;;;19.78;100.00;101458.91;5074287;28;20028;-37
2023/06/21 05:50:01;;;;;;;14.48;13.00;;;;;;;19.82;100.00;101475.63;5073323;28;20538;-37
2023/06/21 05:52:27;;;;;;;14.82;13.10;;;;;;;19.88;100.00;101482.75;5074431;28;20028;-37
2023/06/21 05:54:52;;;;;;;13.38;12.18;;;;;;;19.89;100.00;101476.16;5073628;28;20052;-37
2023/06/21 05:57:17;;;;;;;12.85;11.75;;;;;;;20.07;100.00;101489.28;5073942;28;20040;-37
2023/06/21 05:59:43;;;;;;;14.10;12.73;;;;;;;20.02;100.00;101486.56;5074474;28;20188;-37
2023/06/21 06:02:09;;;;;;;13.05;11.85;;;;;;;20.04;100.00;101489.84;5074275;28;20452;-37
2023/06/21 06:04:36;;;;;;;13.90;12.70;;;;;;;19.97;100.00;101489.31;5074056;28;20440;-37
2023/06/21 06:07:02;;;;;;;14.48;13.15;;;;;;;20.01;100.00;101502.22;5073923;28;20066;-38
2023/06/21 06:09:27;;;;;;;13.48;12.23;;;;;;;19.85;100.00;101497.00;5073094;28;20037;-37
2023/06/21 06:11:53;;;;;;;13.90;12.60;;;;;;;19.98;100.00;101512.91;5073799;28;20039;-37
2023/06/21 06:14:18;;;;;;;13.63;12.32;;;;;;;19.97;100.00;101514.03;5073347;28;20032;-37
2023/06/21 06:16:44;;;;;;;12.82;11.63;;;;;;;20.01;100.00;101509.63;5073393;28;20062;-37
2023/06/21 06:19:09;;;;;;;13.20;11.90;;;;;;;20.13;100.00;101514.81;5072891;28;20103;-37
2023/06/21 06:21:36;;;;;;;13.18;11.52;;;;;;;20.21;100.00;101512.31;5073728;28;20056;-37
2023/06/21 06:24:02;;;;;;;13.23;11.93;;;;;;;20.25;100.00;101518.03;5073108;28;20039;-37
2023/06/21 06:26:27;;;;;;;12.82;11.63;;;;;;;20.37;100.00;101515.00;5072539;28;20032;-37
2023/06/21 06:28:54;;;;;;;11.98;10.88;;;;;;;20.26;100.00;101506.81;5072774;28;20024;-37
2023/06/21 06:31:21;;;;;;;10.82;9.77;;;;;;;20.37;100.00;101512.25;5073431;28;20028;-37
2023/06/21 06:33:47;;;;;;;11.85;10.75;;;;;;;20.50;100.00;101526.25;5072854;28;20062;-38
2023/06/21 06:36:13;;;;;;;11.77;10.68;;;;;;;20.57;100.00;101531.44;5073065;28;20024;-37
2023/06/21 06:38:38;;;;;;;12.27;11.07;;;;;;;20.66;100.00;101532.50;5072996;28;20062;-37
2023/06/21 06:41:04;;;;;;;11.10;10.00;;;;;;;20.57;100.00;101521.25;5073855;28;20052;-37
2023/06/21 06:43:29;;;;;;;11.05;9.95;;;;;;;20.65;100.00;101533.59;5073006;28;20035;-37
2023/06/21 06:45:55;;;;;;;10.38;9.48;;;;;;;20.68;100.00;101532.19;5073854;28;20032;-37
2023/06/21 06:48:20;;;;;;;11.52;9.90;;;;;;;20.79;100.00;101542.06;5072939;28;20025;-37
2023/06/21 06:50:45;;;;;;;10.77;9.68;;;;;;;20.72;100.00;101536.03;5073404;28;20036;-38
2023/06/21 06:53:11;;;;;;;11.18;10.07;;;;;;;20.81;100.00;101548.91;5073052;28;20027;-37
2023/06/21 06:55:36;;;;;;;11.32;10.27;;;;;;;20.79;100.00;101547.56;5072986;28;20031;-37
2023/06/21 06:58:02;;;;;;;11.32;10.23;;;;;;;20.97;100.00;101566.13;5072780;28;20025;-38
2023/06/21 07:00:27;;;;;;;11.55;10.32;;;;;;;20.89;100.00;101571.44;5073824;28;20048;-38
2023/06/21 07:02:57;;;;;;;11.43;9.48;;;;;;;20.89;100.00;101565.94;5072677;28;20521;-36
2023/06/21 07:05:26;;;;;;;9.82;8.82;;;;;;;20.93;100.00;101580.72;5072960;28;20480;-37
2023/06/21 07:07:52;;;;;;;9.90;8.90;;;;;;;20.91;100.00;101574.69;5073318;28;20115;-37
2023/06/21 07:10:18;;;;;;;9.63;8.73;;;;;;;21.08;100.00;101577.88;5073125;28;20060;-37
2023/06/21 07:12:43;;;;;;;9.50;8.68;;;;;;;21.14;100.00;101578.72;5072996;28;20387;-37
2023/06/21 07:15:09;;;;;;;10.23;9.25;;;;;;;21.14;100.00;101578.72;5073008;28;20037;-37
2023/06/21 07:17:34;;;;;;;10.00;9.00;;;;;;;21.08;100.00;101576.00;5072378;28;20093;-37
2023/06/21 07:20:00;;;;;;;9.63;8.63;;;;;;;21.11;100.00;101571.84;5072228;28;20025;-37
2023/06/21 07:22:25;;;;;;;10.52;9.40;;;;;;;21.14;100.00;101574.03;5076297;28;20033;-37
2023/06/21 07:24:51;;;;;;;8.80;7.75;;;;;;;21.20;100.00;101558.31;5077120;28;20035;-37
2023/06/21 07:27:16;;;;;;;9.45;7.70;;;;;;;21.41;100.00;101581.84;5076259;28;20116;-37
2023/06/21 07:29:41;;;;;;;8.55;7.65;;;;;;;21.55;100.00;101584.78;5076562;28;20025;-37
2023/06/21 07:32:07;;;;;;;9.77;7.90;;;;;;;21.54;100.00;101583.94;5076640;28;20048;-37
2023/06/21 07:34:32;;;;;;;7.88;7.07;;;;;;;21.63;100.00;101584.16;5076403;28;20551;-37
2023/06/21 07:36:58;;;;;;;8.05;6.95;;;;;;;21.60;100.00;101568.22;5076828;28;20033;-37
2023/06/21 07:39:23;;;;;;;6.70;5.85;;;;;;;21.76;100.00;101575.22;5076707;28;20403;-37
2023/06/21 07:41:48;;;;;;;6.68;5.30;;;;;;;21.83;100.00;101575.75;5076796;28;20028;-38
2023/06/21 07:44:14;;;;;;;8.32;5.10;;;;;;;21.84;99.07;101574.63;5076168;28;20033;-37
2023/06/21 07:46:39;;;;;;;6.80;5.75;;;;;;;21.92;100.00;101578.69;5076361;28;20086;-37
2023/06/21 07:49:05;;;;;;;6.65;5.28;;;;;;;22.06;100.00;101589.84;5076784;28;20361;-37
2023/06/21 07:51:31;;;;;;;9.05;5.75;;;;;;;22.04;100.00;101592.88;5076787;28;20385;-38
2023/06/21 07:53:56;;;;;;;5.82;5.20;;;;;;;22.07;100.00;101597.00;5076027;28;20036;-37
2023/06/21 07:56:21;;;;;;;6.13;4.97;;;;;;;22.07;98.88;101589.56;5076066;28;20029;-37
2023/06/21 07:58:47;;;;;;;5.35;4.85;;;;;;;22.12;98.46;101587.91;5075939;28;20357;-38
2023/06/21 08:01:13;;;;;;;5.13;4.70;;;;;;;22.15;98.67;101593.63;5076435;28;20043;-37
2023/06/21 08:03:39;;;;;;;6.82;5.10;;;;;;;22.18;98.54;101590.31;5076074;28;20040;-38
2023/06/21 08:06:05;;;;;;;5.93;5.00;;;;;;;22.25;97.07;101593.56;5076587;28;20427;-38
2023/06/21 08:08:30;;;;;;;6.03;5.20;;;;;;;22.32;98.91;101593.19;5076314;28;20108;-38
2023/06/21 08:10:56;;;;;;;4.85;4.45;;;;;;;22.40;97.29;101600.00;5076461;28;20037;-38
2023/06/21 08:13:22;;;;;;;6.78;4.63;;;;;;;22.46;96.43;101596.09;5075684;28;20029;-38
2023/06/21 08:15:48;;;;;;;5.45;4.97;;;;;;;22.58;95.21;101597.28;5076217;28;20056;-38
2023/06/21 08:18:14;;;;;;;5.10;4.60;;;;;;;22.71;96.49;101606.00;5075894;28;20024;-37
2023/06/21 08:20:40;;;;;;;5.78;4.63;;;;;;;22.76;96.39;101605.94;5075524;28;20433;-39
2023/06/21 08:23:06;;;;;;;5.80;5.25;;;;;;;22.89;96.49;101613.53;5075563;28;20103;-38
2023/06/21 08:25:32;;;;;;;6.25;5.38;;;;;;;22.93;92.98;101598.00;5076046;28;20052;-38
2023/06/21 08:27:57;;;;;;;5.57;5.07;;;;;;;23.00;90.91;101615.03;5075907;28;20553;-38
2023/06/21 08:30:23;;;;;;;6.22;5.72;;;;;;;22.95;90.41;101595.78;5075129;28;20040;-40
2023/06/21 08:32:48;;;;;;;7.57;6.55;;;;;;;23.04;93.95;101613.31;5074777;28;20096;-37
2023/06/21 08:35:13;;;;;;;7.40;6.70;;;;;;;23.04;94.32;101609.75;5075671;28;20060;-37
2023/06/21 08:37:39;;;;;;;8.38;5.95;;;;;;;23.11;90.82;101615.69;5075232;28;20031;-38
2023/06/21 08:40:07;;;;;;;6.25;5.60;;;;;;;23.09;89.71;101598.63;5074883;28;20056;-37
2023/06/21 08:42:32;;;;;;;6.25;5.70;;;;;;;23.20;92.04;101618.63;5075513;28;20032;-37
2023/06/21 08:44:58;;;;;;;5.70;5.20;;;;;;;23.36;88.10;101609.00;5075194;28;20021;-37
2023/06/21 08:47:28;;;;;;;5.80;5.30;;;;;;;23.51;86.66;101614.28;5075459;28;20151;-37
2023/06/21 08:49:57;;;;;;;6.32;5.72;;;;;;;23.54;87.55;101602.66;5075441;28;20024;-37
2023/06/21 08:52:26;;;;;;;7.15;5.53;;;;;;;23.71;87.08;101613.16;5075166;28;20020;-38
2023/06/21 08:55:05;;;;;;;7.28;6.05;;;;;;;23.75;85.21;101627.19;5074751;28;20025;-38
2023/06/21 08:57:37;;;;;;;6.68;5.25;;;;;;;23.69;83.38;101606.31;5075462;28;20028;-37
2023/06/21 09:00:04;;;;;;;5.35;4.85;;;;;;;23.70;83.42;101614.28;5075778;28;20051;-38
2023/06/21 09:02:29;;;;;;;5.57;5.07;;;;;;;23.66;79.52;101616.00;5074576;28;20028;-38
2023/06/21 09:04:58;;;;;;;4.40;3.90;;;;;;;23.75;78.23;101630.78;5074737;28;20021;-36
2023/06/21 09:07:25;;;;;;;5.10;4.38;;;;;;;23.87;79.49;101625.63;5074490;28;20170;-37
2023/06/21 09:09:51;;;;;;;4.60;4.20;;;;;;;24.15;81.48;101626.50;5074867;28;20036;-37
2023/06/21 09:12:17;;;;;;;5.07;4.55;;;;;;;24.09;79.15;101622.19;5075120;28;20039;-37
2023/06/21 09:14:43;;;;;;;4.05;3.60;;;;;;;24.17;75.83;101611.59;5074228;28;20021;-37
2023/06/21 09:17:08;;;;;;;4.63;3.70;;;;;;;24.14;74.39;101622.09;5074934;28;20059;-37
2023/06/21 09:19:35;;;;;;;3.42;3.00;;;;;;;24.35;73.83;101627.25;5074589;28;20346;-37
2023/06/21 09:22:00;;;;;;;3.30;2.95;;;;;;;24.47;73.88;101629.56;5074737;28;20020;-37
2023/06/21 09:24:26;;;;;;;3.72;3.00;;;;;;;24.59;77.32;101622.38;5074638;28;20036;-37
2023/06/21 09:26:52;;;;;;;3.78;3.05;;;;;;;24.72;74.20;101637.34;5074575;28;20028;-37
2023/06/21 09:29:18;;;;;;;3.55;2.90;;;;;;;24.67;73.02;101637.47;5074202;28;20082;-37
2023/06/21 09:31:43;;;;;;;3.42;2.83;;;;;;;24.72;72.19;101636.53;5074228;28;20024;-37
2023/06/21 09:34:08;;;;;;;4.07;2.70;;;;;;;24.89;71.49;101637.56;5074574;28;20403;-37
2023/06/21 09:36:34;;;;;;;3.35;2.53;;;;;;;24.97;69.33;101637.94;5074071;28;20031;-37
2023/06/21 09:39:09;;;;;;;2.70;2.10;;;;;;;24.97;70.82;101643.50;5074475;28;20024;-38
2023/06/21 09:41:35;;;;;;;2.60;2.30;;;;;;;24.98;71.04;101645.13;5074357;28;20429;-38
2023/06/21 09:44:01;;;;;;;2.55;2.35;;;;;;;24.98;69.91;101637.63;5073410;28;20052;-38
2023/06/21 09:46:27;;;;;;;3.03;2.47;;;;;;;25.10;69.79;101643.50;5073641;28;20542;-38
2023/06/21 09:48:52;;;;;;;4.35;3.60;;;;;;;25.11;72.10;101636.84;5074126;28;20037;-38
2023/06/21 09:51:22;;;;;;;4.25;3.63;;;;;;;24.93;72.00;101646.84;5074159;28;20036;-37
2023/06/21 09:53:50;;;;;;;4.53;3.40;;;;;;;24.99;69.48;101649.56;5073773;28;20073;-37
2023/06/21 09:56:18;;;;;;;3.55;3.10;;;;;;;25.10;69.74;101635.22;5073908;28;20064;-38
2023/06/21 09:58:43;;;;;;;3.33;1.90;;;;;;;25.28;66.53;101640.91;5073534;28;20072;-37
2023/06/21 10:01:14;;;;;;;3.85;2.03;;;;;;;25.42;67.89;101636.97;5074139;28;20071;-37
2023/06/21 10:03:43;;;;;;;2.58;2.10;;;;;;;25.58;65.72;101645.75;5073835;28;20024;-38
2023/06/21 10:06:14;;;;;;;3.38;2.70;;;;;;;25.63;65.45;101640.09;5074108;28;20020;-38
2023/06/21 10:08:39;;;;;;;2.88;2.58;;;;;;;25.59;65.46;101644.63;5074308;28;20056;-38
2023/06/21 10:11:05;;;;;;;3.95;2.47;;;;;;;25.59;65.18;101643.78;5073843;28;20063;-38
2023/06/21 10:13:32;;;;;;;2.60;2.30;;;;;;;25.78;65.78;101652.78;5073195;28;20028;-38
2023/06/21 10:16:01;;;;;;;3.75;2.58;;;;;;;25.74;65.08;101637.88;5073452;28;20040;-38
2023/06/21 10:18:27;;;;;;;4.07;3.40;;;;;;;25.51;65.19;101652.84;5073392;28;20111;-37
2023/06/21 10:21:09;;;;;;;5.28;3.47;;;;;;;25.21;68.33;101666.25;5073518;28;20103;-38
2023/06/21 10:23:38;;;;;;;3.28;2.85;;;;;;;25.16;67.64;101663.59;5073030;28;20035;-37
2023/06/21 10:26:12;;;;;;;3.40;2.83;;;;;;;25.26;67.96;101674.44;5073543;28;20360;-38
2023/06/21 10:28:42;;;;;;;3.40;3.10;;;;;;;25.30;68.40;101675.44;5073024;28;20081;-38
2023/06/21 10:31:09;;;;;;;3.88;2.78;;;;;;;25.51;68.08;101677.75;5072932;28;20024;-38
2023/06/21 10:33:36;;;;;;;3.00;2.28;;;;;;;25.47;67.09;101679.50;5072842;28;20036;-40
2023/06/21 10:36:03;;;;;;;2.75;1.60;;;;;;;25.54;64.12;101660.53;5073406;28;20036;-38
2023/06/21 10:38:34;;;;;;;3.08;1.38;;;;;;;25.58;63.09;101687.28;5073111;28;20173;-37
2023/06/21 10:41:01;;;;;;;1.35;1.10;;;;;;;25.77;61.64;101689.94;5073759;28;20425;-37
2023/06/21 10:43:27;;;;;;;3.60;1.27;;;;;;;25.99;62.83;101679.97;5073003;28;20384;-37
2023/06/21 10:45:55;;;;;;;2.47;1.00;;;;;;;26.04;59.71;101686.22;5072725;28;20396;-37
2023/06/21 10:48:21;;;;;;;2.10;1.30;;;;;;;26.04;59.06;101693.72;5073217;28;20039;-37
2023/06/21 10:50:48;;;;;;;3.72;1.33;;;;;;;26.17;59.22;101688.09;5073286;28;20379;-37
2023/06/21 10:53:17;;;;;;;2.10;1.25;;;;;;;26.32;59.29;101695.22;5073047;28;20024;-38
2023/06/21 10:55:42;;;;;;;1.83;0.98;;;;;;;26.35;57.74;101688.19;5073266;28;20074;-38
2023/06/21 10:58:10;;;;;;;2.35;1.33;;;;;;;26.38;57.36;101707.78;5072941;28;20036;-38
2023/06/21 11:00:35;;;;;;;1.50;1.10;;;;;;;26.37;58.25;101691.47;5072998;28;20045;-38
2023/06/21 11:03:01;;;;;;;1.30;1.10;;;;;;;26.53;56.73;101691.91;5072782;28;20040;-38
2023/06/21 11:05:27;;;;;;;2.60;1.50;;;;;;;26.55;58.63;101686.84;5072820;28;20361;-38
2023/06/21 11:07:53;;;;;;;2.30;1.08;;;;;;;26.77;57.36;101695.13;5072572;28;20033;-38
2023/06/21 11:10:42;;;;;;;2.42;1.33;;;;;;;26.93;56.59;101687.19;5073292;28;20036;-38
2023/06/21 11:13:08;;;;;;;2.58;1.40;;;;;;;26.94;55.98;101691.63;5069957;28;20044;-38
2023/06/21 11:15:37;;;;;;;3.13;1.20;;;;;;;26.88;55.05;101690.91;5072425;28;20024;-38